sensor_id;sensor_type;location;lat;lon;timestamp;temperature;humidity
19680;DHT22;9989;48.962;9.182;2023-12-20T00:01:22;6.60;99.90
19680;DHT22;9989;48.962;9.182;2023-12-20T00:03:47;6.50;99.90
19680;DHT22;9989;48.962;9.182;2023-12-20T00:06:13;6.50;99.90
19680;DHT22;9989;48.962;9.182;2023-12-20T00:08:39;6.50;99.90
19680;DHT22;9989;48.962;9.182;2023-12-20T00:11:04;6.50;99.90
19680;DHT22;9989;48.962;9.182;2023-12-20T00:13:30;6.60;99.90
19680;DHT22;9989;48.962;9.182;2023-12-20T00:15:55;6.60;99.90
19680;DHT22;9989;48.962;9.182;2023-12-20T00:18:21;6.60;99.90
19680;DHT22;9989;48.962;9.182;2023-12-20T00:20:46;6.60;99.90
19680;DHT22;9989;48.962;9.182;2023-12-20T00:23:12;6.60;99.90
19680;DHT22;9989;48.962;9.182;2023-12-20T00:25:37;6.60;99.90
19680;DHT22;9989;48.962;9.182;2023-12-20T00:28:03;6.60;99.90
19680;DHT22;9989;48.962;9.182;2023-12-20T00:30:29;6.60;99.90
19680;DHT22;9989;48.962;9.182;2023-12-20T00:32:55;6.60;99.90
19680;DHT22;9989;48.962;9.182;2023-12-20T00:35:21;6.60;99.90
19680;DHT22;9989;48.962;9.182;2023-12-20T00:37:46;6.60;99.90
19680;DHT22;9989;48.962;9.182;2023-12-20T00:40:12;6.60;99.90
19680;DHT22;9989;48.962;9.182;2023-12-20T00:42:37;6.60;99.90
19680;DHT22;9989;48.962;9.182;2023-12-20T00:45:03;6.60;99.90
19680;DHT22;9989;48.962;9.182;2023-12-20T00:47:30;6.60;99.90
19680;DHT22;9989;48.962;9.182;2023-12-20T00:49:56;6.60;99.90
19680;DHT22;9989;48.962;9.182;2023-12-20T00:52:21;6.60;99.90
19680;DHT22;9989;48.962;9.182;2023-12-20T00:54:48;6.60;99.90
19680;DHT22;9989;48.962;9.182;2023-12-20T00:57:14;6.60;99.90
19680;DHT22;9989;48.962;9.182;2023-12-20T00:59:39;6.60;99.90
19680;DHT22;9989;48.962;9.182;2023-12-20T01:02:05;6.60;99.90
19680;DHT22;9989;48.962;9.182;2023-12-20T01:04:30;6.60;99.90
19680;DHT22;9989;48.962;9.182;2023-12-20T01:06:56;6.60;99.90
19680;DHT22;9989;48.962;9.182;2023-12-20T01:09:22;6.50;99.90
19680;DHT22;9989;48.962;9.182;2023-12-20T01:11:52;6.60;99.90
19680;DHT22;9989;48.962;9.182;2023-12-20T01:14:18;6.60;99.90
19680;DHT22;9989;48.962;9.182;2023-12-20T01:16:43;6.60;99.90
19680;DHT22;9989;48.962;9.182;2023-12-20T01:19:09;6.60;99.90
19680;DHT22;9989;48.962;9.182;2023-12-20T01:21:34;6.60;99.90
19680;DHT22;9989;48.962;9.182;2023-12-20T01:24:00;6.60;99.90
19680;DHT22;9989;48.962;9.182;2023-12-20T01:26:25;6.60;99.90
19680;DHT22;9989;48.962;9.182;2023-12-20T01:28:51;6.60;99.90
19680;DHT22;9989;48.962;9.182;2023-12-20T01:31:17;6.60;99.90
19680;DHT22;9989;48.962;9.182;2023-12-20T01:33:42;6.60;99.90
19680;DHT22;9989;48.962;9.182;2023-12-20T01:36:08;6.60;99.90
19680;DHT22;9989;48.962;9.182;2023-12-20T01:38:34;6.60;99.90
19680;DHT22;9989;48.962;9.182;2023-12-20T01:40:59;6.60;99.90
19680;DHT22;9989;48.962;9.182;2023-12-20T01:43:25;6.60;99.90
19680;DHT22;9989;48.962;9.182;2023-12-20T01:45:51;6.60;99.90
19680;DHT22;9989;48.962;9.182;2023-12-20T01:48:17;6.60;99.90
19680;DHT22;9989;48.962;9.182;2023-12-20T01:50:44;6.60;99.90
19680;DHT22;9989;48.962;9.182;2023-12-20T01:53:12;6.60;99.90
19680;DHT22;9989;48.962;9.182;2023-12-20T01:55:41;6.50;99.90
19680;DHT22;9989;48.962;9.182;2023-12-20T01:58:10;6.60;99.90
19680;DHT22;9989;48.962;9.182;2023-12-20T02:00:38;6.50;99.90
19680;DHT22;9989;48.962;9.182;2023-12-20T02:03:04;6.50;99.90
19680;DHT22;9989;48.962;9.182;2023-12-20T02:05:31;6.50;99.90
19680;DHT22;9989;48.962;9.182;2023-12-20T02:07:57;6.50;99.90
19680;DHT22;9989;48.962;9.182;2023-12-20T02:10:23;6.50;99.90
19680;DHT22;9989;48.962;9.182;2023-12-20T02:12:49;6.60;99.90
19680;DHT22;9989;48.962;9.182;2023-12-20T02:15:14;6.60;99.90
19680;DHT22;9989;48.962;9.182;2023-12-20T02:17:40;6.70;99.90
19680;DHT22;9989;48.962;9.182;2023-12-20T02:20:06;6.70;99.90
19680;DHT22;9989;48.962;9.182;2023-12-20T02:22:32;6.80;99.90
19680;DHT22;9989;48.962;9.182;2023-12-20T02:24:58;6.80;99.90
19680;DHT22;9989;48.962;9.182;2023-12-20T02:27:23;6.90;99.90
19680;DHT22;9989;48.962;9.182;2023-12-20T02:29:50;6.90;99.90
19680;DHT22;9989;48.962;9.182;2023-12-20T02:32:20;6.90;99.90
19680;DHT22;9989;48.962;9.182;2023-12-20T02:34:47;6.90;99.90
19680;DHT22;9989;48.962;9.182;2023-12-20T02:37:13;7.00;99.90
19680;DHT22;9989;48.962;9.182;2023-12-20T02:39:39;7.00;99.90
19680;DHT22;9989;48.962;9.182;2023-12-20T02:42:04;7.00;99.90
19680;DHT22;9989;48.962;9.182;2023-12-20T02:44:30;7.10;99.90
19680;DHT22;9989;48.962;9.182;2023-12-20T02:46:55;7.10;99.90
19680;DHT22;9989;48.962;9.182;2023-12-20T02:49:21;7.10;99.90
19680;DHT22;9989;48.962;9.182;2023-12-20T02:51:46;7.10;99.90
19680;DHT22;9989;48.962;9.182;2023-12-20T02:54:12;7.00;99.90
19680;DHT22;9989;48.962;9.182;2023-12-20T02:56:38;7.10;99.90
19680;DHT22;9989;48.962;9.182;2023-12-20T02:59:04;7.10;99.90
19680;DHT22;9989;48.962;9.182;2023-12-20T03:01:31;7.10;99.90
19680;DHT22;9989;48.962;9.182;2023-12-20T03:03:57;7.10;99.90
19680;DHT22;9989;48.962;9.182;2023-12-20T03:06:22;7.10;99.90
19680;DHT22;9989;48.962;9.182;2023-12-20T03:08:48;7.10;99.90
19680;DHT22;9989;48.962;9.182;2023-12-20T03:11:14;7.10;99.90
19680;DHT22;9989;48.962;9.182;2023-12-20T03:13:39;7.10;99.90
19680;DHT22;9989;48.962;9.182;2023-12-20T03:16:12;7.10;99.90
19680;DHT22;9989;48.962;9.182;2023-12-20T03:18:39;7.00;99.90
19680;DHT22;9989;48.962;9.182;2023-12-20T03:21:05;7.00;99.90
19680;DHT22;9989;48.962;9.182;2023-12-20T03:23:31;7.00;99.90
19680;DHT22;9989;48.962;9.182;2023-12-20T03:25:58;7.00;99.90
19680;DHT22;9989;48.962;9.182;2023-12-20T03:28:24;7.00;99.90
19680;DHT22;9989;48.962;9.182;2023-12-20T03:30:50;7.00;99.90
19680;DHT22;9989;48.962;9.182;2023-12-20T03:33:15;7.00;99.90
19680;DHT22;9989;48.962;9.182;2023-12-20T03:35:41;7.00;99.90
19680;DHT22;9989;48.962;9.182;2023-12-20T03:38:07;7.00;99.90
19680;DHT22;9989;48.962;9.182;2023-12-20T03:40:32;7.00;99.90
19680;DHT22;9989;48.962;9.182;2023-12-20T03:42:58;7.00;99.90
19680;DHT22;9989;48.962;9.182;2023-12-20T03:45:24;6.90;99.90
19680;DHT22;9989;48.962;9.182;2023-12-20T03:47:49;6.90;99.90
19680;DHT22;9989;48.962;9.182;2023-12-20T03:50:15;6.90;99.90
19680;DHT22;9989;48.962;9.182;2023-12-20T03:52:41;6.90;99.90
19680;DHT22;9989;48.962;9.182;2023-12-20T03:55:06;6.90;99.90
19680;DHT22;9989;48.962;9.182;2023-12-20T03:57:32;6.90;99.90
19680;DHT22;9989;48.962;9.182;2023-12-20T03:59:57;6.90;99.90
19680;DHT22;9989;48.962;9.182;2023-12-20T04:02:23;6.90;99.90
19680;DHT22;9989;48.962;9.182;2023-12-20T04:04:49;6.90;99.90
19680;DHT22;9989;48.962;9.182;2023-12-20T04:07:14;6.90;99.90
19680;DHT22;9989;48.962;9.182;2023-12-20T04:09:41;6.90;99.90
19680;DHT22;9989;48.962;9.182;2023-12-20T04:12:06;6.90;99.90
19680;DHT22;9989;48.962;9.182;2023-12-20T04:14:32;6.90;99.90
19680;DHT22;9989;48.962;9.182;2023-12-20T04:16:58;6.80;99.90
19680;DHT22;9989;48.962;9.182;2023-12-20T04:19:23;6.80;99.90
19680;DHT22;9989;48.962;9.182;2023-12-20T04:21:49;6.80;99.90
19680;DHT22;9989;48.962;9.182;2023-12-20T04:24:15;6.80;99.90
19680;DHT22;9989;48.962;9.182;2023-12-20T04:26:40;6.80;99.90
19680;DHT22;9989;48.962;9.182;2023-12-20T04:29:06;6.80;99.90
19680;DHT22;9989;48.962;9.182;2023-12-20T04:31:31;6.80;99.90
19680;DHT22;9989;48.962;9.182;2023-12-20T04:33:57;6.80;99.90
19680;DHT22;9989;48.962;9.182;2023-12-20T04:36:22;6.80;99.90
19680;DHT22;9989;48.962;9.182;2023-12-20T04:38:48;6.80;99.90
19680;DHT22;9989;48.962;9.182;2023-12-20T04:41:14;6.80;99.90
19680;DHT22;9989;48.962;9.182;2023-12-20T04:43:44;6.80;99.90
19680;DHT22;9989;48.962;9.182;2023-12-20T04:46:09;6.80;99.90
19680;DHT22;9989;48.962;9.182;2023-12-20T04:48:35;6.80;99.90
19680;DHT22;9989;48.962;9.182;2023-12-20T04:51:01;6.80;99.90
19680;DHT22;9989;48.962;9.182;2023-12-20T04:53:26;6.80;99.90
19680;DHT22;9989;48.962;9.182;2023-12-20T04:55:52;6.70;99.90
19680;DHT22;9989;48.962;9.182;2023-12-20T04:58:19;6.70;99.90
19680;DHT22;9989;48.962;9.182;2023-12-20T05:00:44;6.80;99.90
19680;DHT22;9989;48.962;9.182;2023-12-20T05:03:10;6.70;99.90
19680;DHT22;9989;48.962;9.182;2023-12-20T05:05:36;6.70;99.90
19680;DHT22;9989;48.962;9.182;2023-12-20T05:08:01;6.80;99.90
19680;DHT22;9989;48.962;9.182;2023-12-20T05:10:27;6.80;99.90
19680;DHT22;9989;48.962;9.182;2023-12-20T05:12:53;6.80;99.90
19680;DHT22;9989;48.962;9.182;2023-12-20T05:15:19;6.80;99.90
19680;DHT22;9989;48.962;9.182;2023-12-20T05:17:44;6.80;99.90
19680;DHT22;9989;48.962;9.182;2023-12-20T05:20:10;6.80;99.90
19680;DHT22;9989;48.962;9.182;2023-12-20T05:22:36;6.80;99.90
19680;DHT22;9989;48.962;9.182;2023-12-20T05:25:01;6.90;99.90
19680;DHT22;9989;48.962;9.182;2023-12-20T05:27:27;6.90;99.90
19680;DHT22;9989;48.962;9.182;2023-12-20T05:29:53;6.90;99.90
19680;DHT22;9989;48.962;9.182;2023-12-20T05:32:18;6.90;99.90
19680;DHT22;9989;48.962;9.182;2023-12-20T05:34:44;6.80;99.90
19680;DHT22;9989;48.962;9.182;2023-12-20T05:37:09;6.90;99.90
19680;DHT22;9989;48.962;9.182;2023-12-20T05:39:35;6.90;99.90
19680;DHT22;9989;48.962;9.182;2023-12-20T05:42:00;6.90;99.90
19680;DHT22;9989;48.962;9.182;2023-12-20T05:44:26;6.90;99.90
19680;DHT22;9989;48.962;9.182;2023-12-20T05:46:51;6.90;99.90
19680;DHT22;9989;48.962;9.182;2023-12-20T05:49:17;6.90;99.90
19680;DHT22;9989;48.962;9.182;2023-12-20T05:51:42;6.90;99.90
19680;DHT22;9989;48.962;9.182;2023-12-20T05:54:09;6.90;99.90
19680;DHT22;9989;48.962;9.182;2023-12-20T05:56:35;6.90;99.90
19680;DHT22;9989;48.962;9.182;2023-12-20T05:59:00;6.90;99.90
19680;DHT22;9989;48.962;9.182;2023-12-20T06:01:26;7.00;99.90
19680;DHT22;9989;48.962;9.182;2023-12-20T06:03:51;6.90;99.90
19680;DHT22;9989;48.962;9.182;2023-12-20T06:06:17;6.90;99.90
19680;DHT22;9989;48.962;9.182;2023-12-20T06:08:43;6.90;99.90
19680;DHT22;9989;48.962;9.182;2023-12-20T06:11:09;6.90;99.90
19680;DHT22;9989;48.962;9.182;2023-12-20T06:13:34;6.90;99.90
19680;DHT22;9989;48.962;9.182;2023-12-20T06:16:01;7.00;99.90
19680;DHT22;9989;48.962;9.182;2023-12-20T06:18:26;6.90;99.90
19680;DHT22;9989;48.962;9.182;2023-12-20T06:20:52;6.90;99.90
19680;DHT22;9989;48.962;9.182;2023-12-20T06:23:17;7.00;99.90
19680;DHT22;9989;48.962;9.182;2023-12-20T06:25:44;6.90;99.90
19680;DHT22;9989;48.962;9.182;2023-12-20T06:28:09;7.00;99.90
19680;DHT22;9989;48.962;9.182;2023-12-20T06:30:36;7.00;99.90
19680;DHT22;9989;48.962;9.182;2023-12-20T06:33:01;7.00;99.90
19680;DHT22;9989;48.962;9.182;2023-12-20T06:35:27;7.00;99.90
19680;DHT22;9989;48.962;9.182;2023-12-20T06:37:53;7.00;99.90
19680;DHT22;9989;48.962;9.182;2023-12-20T06:40:19;7.00;99.90
19680;DHT22;9989;48.962;9.182;2023-12-20T06:42:45;7.00;99.90
19680;DHT22;9989;48.962;9.182;2023-12-20T06:45:11;7.00;99.90
19680;DHT22;9989;48.962;9.182;2023-12-20T06:47:37;7.00;99.90
19680;DHT22;9989;48.962;9.182;2023-12-20T06:50:03;7.00;99.90
19680;DHT22;9989;48.962;9.182;2023-12-20T06:52:29;7.10;99.90
19680;DHT22;9989;48.962;9.182;2023-12-20T06:54:54;7.10;99.90
19680;DHT22;9989;48.962;9.182;2023-12-20T06:57:20;7.10;99.90
19680;DHT22;9989;48.962;9.182;2023-12-20T06:59:45;7.10;99.90
19680;DHT22;9989;48.962;9.182;2023-12-20T07:02:11;7.10;99.90
19680;DHT22;9989;48.962;9.182;2023-12-20T07:04:41;7.10;99.90
19680;DHT22;9989;48.962;9.182;2023-12-20T07:07:06;7.10;99.90
19680;DHT22;9989;48.962;9.182;2023-12-20T07:09:33;7.10;99.90
19680;DHT22;9989;48.962;9.182;2023-12-20T07:11:58;7.10;99.90
19680;DHT22;9989;48.962;9.182;2023-12-20T07:14:24;7.10;99.90
19680;DHT22;9989;48.962;9.182;2023-12-20T07:16:50;7.10;99.90
19680;DHT22;9989;48.962;9.182;2023-12-20T07:19:15;7.10;99.90
19680;DHT22;9989;48.962;9.182;2023-12-20T07:21:41;7.10;99.90
19680;DHT22;9989;48.962;9.182;2023-12-20T07:24:06;7.00;99.90
19680;DHT22;9989;48.962;9.182;2023-12-20T07:26:32;7.00;99.90
19680;DHT22;9989;48.962;9.182;2023-12-20T07:28:59;7.00;99.90
19680;DHT22;9989;48.962;9.182;2023-12-20T07:31:24;7.00;99.90
19680;DHT22;9989;48.962;9.182;2023-12-20T07:33:50;7.00;99.90
19680;DHT22;9989;48.962;9.182;2023-12-20T07:36:16;7.00;99.90
19680;DHT22;9989;48.962;9.182;2023-12-20T07:38:41;7.00;99.90
19680;DHT22;9989;48.962;9.182;2023-12-20T07:41:10;7.00;99.90
19680;DHT22;9989;48.962;9.182;2023-12-20T07:43:36;6.90;99.90
19680;DHT22;9989;48.962;9.182;2023-12-20T07:46:08;7.00;99.90
19680;DHT22;9989;48.962;9.182;2023-12-20T07:48:37;6.90;99.90
19680;DHT22;9989;48.962;9.182;2023-12-20T07:51:03;6.90;99.90
19680;DHT22;9989;48.962;9.182;2023-12-20T07:53:29;6.90;99.90
19680;DHT22;9989;48.962;9.182;2023-12-20T07:55:55;6.90;99.90
19680;DHT22;9989;48.962;9.182;2023-12-20T07:58:21;6.80;99.90
19680;DHT22;9989;48.962;9.182;2023-12-20T08:00:47;6.90;99.90
19680;DHT22;9989;48.962;9.182;2023-12-20T08:03:13;6.90;99.90
19680;DHT22;9989;48.962;9.182;2023-12-20T08:05:38;6.90;99.90
19680;DHT22;9989;48.962;9.182;2023-12-20T08:08:07;6.90;99.90
19680;DHT22;9989;48.962;9.182;2023-12-20T08:10:32;7.00;99.90
19680;DHT22;9989;48.962;9.182;2023-12-20T08:12:58;7.10;99.90
19680;DHT22;9989;48.962;9.182;2023-12-20T08:15:23;7.70;99.90
19680;DHT22;9989;48.962;9.182;2023-12-20T08:17:49;8.50;99.90
19680;DHT22;9989;48.962;9.182;2023-12-20T08:20:18;9.40;99.90
19680;DHT22;9989;48.962;9.182;2023-12-20T08:22:44;10.50;99.90
19680;DHT22;9989;48.962;9.182;2023-12-20T08:25:09;11.60;99.90
19680;DHT22;9989;48.962;9.182;2023-12-20T08:27:41;12.70;99.90
19680;DHT22;9989;48.962;9.182;2023-12-20T08:30:08;13.60;99.90
19680;DHT22;9989;48.962;9.182;2023-12-20T08:32:34;14.50;99.90
19680;DHT22;9989;48.962;9.182;2023-12-20T08:35:00;15.40;99.90
19680;DHT22;9989;48.962;9.182;2023-12-20T08:37:25;16.10;99.90
19680;DHT22;9989;48.962;9.182;2023-12-20T08:39:51;16.80;99.90
19680;DHT22;9989;48.962;9.182;2023-12-20T08:42:17;17.40;99.90
19680;DHT22;9989;48.962;9.182;2023-12-20T08:44:42;18.00;98.60
19680;DHT22;9989;48.962;9.182;2023-12-20T08:47:08;18.60;95.70
19680;DHT22;9989;48.962;9.182;2023-12-20T08:49:33;19.20;93.80
19680;DHT22;9989;48.962;9.182;2023-12-20T08:51:59;19.80;90.60
19680;DHT22;9989;48.962;9.182;2023-12-20T08:54:25;20.30;86.50
19680;DHT22;9989;48.962;9.182;2023-12-20T08:56:50;20.70;84.00
19680;DHT22;9989;48.962;9.182;2023-12-20T08:59:16;21.20;81.40
19680;DHT22;9989;48.962;9.182;2023-12-20T09:01:41;21.70;77.80
19680;DHT22;9989;48.962;9.182;2023-12-20T09:04:07;22.10;74.80
19680;DHT22;9989;48.962;9.182;2023-12-20T09:06:32;22.30;72.50
19680;DHT22;9989;48.962;9.182;2023-12-20T09:08:58;22.50;71.70
19680;DHT22;9989;48.962;9.182;2023-12-20T09:11:24;22.30;69.70
19680;DHT22;9989;48.962;9.182;2023-12-20T09:13:49;22.00;70.80
19680;DHT22;9989;48.962;9.182;2023-12-20T09:16:16;21.10;71.20
19680;DHT22;9989;48.962;9.182;2023-12-20T09:18:42;19.70;73.90
19680;DHT22;9989;48.962;9.182;2023-12-20T09:21:08;17.90;79.30
19680;DHT22;9989;48.962;9.182;2023-12-20T09:23:33;16.50;84.10
19680;DHT22;9989;48.962;9.182;2023-12-20T09:25:59;15.20;89.40
19680;DHT22;9989;48.962;9.182;2023-12-20T09:28:24;14.00;91.60
19680;DHT22;9989;48.962;9.182;2023-12-20T09:30:50;13.20;93.90
19680;DHT22;9989;48.962;9.182;2023-12-20T09:33:15;12.80;95.20
19680;DHT22;9989;48.962;9.182;2023-12-20T09:35:42;12.70;96.10
19680;DHT22;9989;48.962;9.182;2023-12-20T09:38:07;13.10;96.80
19680;DHT22;9989;48.962;9.182;2023-12-20T09:40:34;13.90;96.10
19680;DHT22;9989;48.962;9.182;2023-12-20T09:43:07;15.10;94.70
19680;DHT22;9989;48.962;9.182;2023-12-20T09:45:34;16.20;91.20
19680;DHT22;9989;48.962;9.182;2023-12-20T09:48:00;17.00;89.80
19680;DHT22;9989;48.962;9.182;2023-12-20T09:50:25;18.10;85.70
19680;DHT22;9989;48.962;9.182;2023-12-20T09:52:53;19.00;81.60
19680;DHT22;9989;48.962;9.182;2023-12-20T09:55:20;19.60;78.20
19680;DHT22;9989;48.962;9.182;2023-12-20T09:57:47;20.20;76.20
19680;DHT22;9989;48.962;9.182;2023-12-20T10:00:14;20.20;74.20
19680;DHT22;9989;48.962;9.182;2023-12-20T10:02:58;20.40;72.60
19680;DHT22;9989;48.962;9.182;2023-12-20T10:05:31;20.60;71.70
19680;DHT22;9989;48.962;9.182;2023-12-20T10:07:57;21.20;70.60
19680;DHT22;9989;48.962;9.182;2023-12-20T10:10:23;21.90;67.50
19680;DHT22;9989;48.962;9.182;2023-12-20T10:13:07;22.60;64.80
19680;DHT22;9989;48.962;9.182;2023-12-20T10:15:35;23.30;63.20
19680;DHT22;9989;48.962;9.182;2023-12-20T10:18:04;24.00;60.30
19680;DHT22;9989;48.962;9.182;2023-12-20T10:20:31;24.60;58.00
19680;DHT22;9989;48.962;9.182;2023-12-20T10:22:58;24.90;57.30
19680;DHT22;9989;48.962;9.182;2023-12-20T10:25:24;25.00;56.20
19680;DHT22;9989;48.962;9.182;2023-12-20T10:28:08;25.20;55.30
19680;DHT22;9989;48.962;9.182;2023-12-20T10:30:33;25.60;54.00
19680;DHT22;9989;48.962;9.182;2023-12-20T10:32:59;25.80;53.30
19680;DHT22;9989;48.962;9.182;2023-12-20T10:35:25;25.30;52.80
19680;DHT22;9989;48.962;9.182;2023-12-20T10:37:54;25.50;51.50
19680;DHT22;9989;48.962;9.182;2023-12-20T10:40:21;25.40;51.10
19680;DHT22;9989;48.962;9.182;2023-12-20T10:42:47;25.20;51.90
19680;DHT22;9989;48.962;9.182;2023-12-20T10:45:13;25.20;51.50
19680;DHT22;9989;48.962;9.182;2023-12-20T10:47:39;25.40;50.20
19680;DHT22;9989;48.962;9.182;2023-12-20T10:50:06;25.10;50.60
19680;DHT22;9989;48.962;9.182;2023-12-20T10:52:34;24.50;51.50
19680;DHT22;9989;48.962;9.182;2023-12-20T10:55:01;23.90;52.60
19680;DHT22;9989;48.962;9.182;2023-12-20T10:57:27;23.70;53.20
19680;DHT22;9989;48.962;9.182;2023-12-20T10:59:54;23.90;53.10
19680;DHT22;9989;48.962;9.182;2023-12-20T11:02:20;23.60;52.90
19680;DHT22;9989;48.962;9.182;2023-12-20T11:04:58;22.50;54.10
19680;DHT22;9989;48.962;9.182;2023-12-20T11:07:48;20.90;56.40
19680;DHT22;9989;48.962;9.182;2023-12-20T11:10:20;18.80;60.00
19680;DHT22;9989;48.962;9.182;2023-12-20T11:13:07;17.20;64.80
19680;DHT22;9989;48.962;9.182;2023-12-20T11:15:36;15.70;68.20
19680;DHT22;9989;48.962;9.182;2023-12-20T11:18:02;14.60;72.00
19680;DHT22;9989;48.962;9.182;2023-12-20T11:20:39;13.80;75.40
19680;DHT22;9989;48.962;9.182;2023-12-20T11:23:06;13.10;78.00
19680;DHT22;9989;48.962;9.182;2023-12-20T11:28:12;11.90;82.70
19680;DHT22;9989;48.962;9.182;2023-12-20T11:33:14;10.90;87.10
19680;DHT22;9989;48.962;9.182;2023-12-20T11:35:41;10.50;89.50
19680;DHT22;9989;48.962;9.182;2023-12-20T11:38:10;10.20;90.10
19680;DHT22;9989;48.962;9.182;2023-12-20T11:40:36;9.90;91.10
19680;DHT22;9989;48.962;9.182;2023-12-20T11:43:03;9.70;91.70
19680;DHT22;9989;48.962;9.182;2023-12-20T11:45:29;9.50;92.50
19680;DHT22;9989;48.962;9.182;2023-12-20T11:47:56;9.30;93.10
19680;DHT22;9989;48.962;9.182;2023-12-20T11:50:23;9.10;93.90
19680;DHT22;9989;48.962;9.182;2023-12-20T11:52:51;9.00;94.40
19680;DHT22;9989;48.962;9.182;2023-12-20T11:55:17;8.90;95.10
19680;DHT22;9989;48.962;9.182;2023-12-20T11:57:44;8.80;95.60
19680;DHT22;9989;48.962;9.182;2023-12-20T12:00:14;8.70;96.20
19680;DHT22;9989;48.962;9.182;2023-12-20T12:02:40;8.70;96.80
19680;DHT22;9989;48.962;9.182;2023-12-20T12:05:07;8.80;97.20
19680;DHT22;9989;48.962;9.182;2023-12-20T12:07:33;8.80;97.40
19680;DHT22;9989;48.962;9.182;2023-12-20T12:09:59;8.80;97.90
19680;DHT22;9989;48.962;9.182;2023-12-20T12:12:25;8.70;98.60
19680;DHT22;9989;48.962;9.182;2023-12-20T12:14:53;8.70;98.50
19680;DHT22;9989;48.962;9.182;2023-12-20T12:17:18;8.60;99.30
19680;DHT22;9989;48.962;9.182;2023-12-20T12:19:44;8.60;99.50
19680;DHT22;9989;48.962;9.182;2023-12-20T12:22:14;8.60;99.60
19680;DHT22;9989;48.962;9.182;2023-12-20T12:24:41;8.70;99.80
19680;DHT22;9989;48.962;9.182;2023-12-20T12:27:07;8.60;99.90
19680;DHT22;9989;48.962;9.182;2023-12-20T12:29:34;8.50;99.90
19680;DHT22;9989;48.962;9.182;2023-12-20T12:32:00;8.50;99.90
19680;DHT22;9989;48.962;9.182;2023-12-20T12:34:28;8.50;99.90
19680;DHT22;9989;48.962;9.182;2023-12-20T12:36:54;8.50;99.90
19680;DHT22;9989;48.962;9.182;2023-12-20T12:39:20;8.50;99.90
19680;DHT22;9989;48.962;9.182;2023-12-20T12:41:46;8.50;99.90
19680;DHT22;9989;48.962;9.182;2023-12-20T12:44:11;8.50;99.90
19680;DHT22;9989;48.962;9.182;2023-12-20T12:46:37;8.50;99.90
19680;DHT22;9989;48.962;9.182;2023-12-20T12:49:03;8.50;99.90
19680;DHT22;9989;48.962;9.182;2023-12-20T12:51:29;8.40;99.90
19680;DHT22;9989;48.962;9.182;2023-12-20T12:53:54;8.30;99.90
19680;DHT22;9989;48.962;9.182;2023-12-20T12:56:20;8.30;99.90
19680;DHT22;9989;48.962;9.182;2023-12-20T12:58:47;8.40;99.90
19680;DHT22;9989;48.962;9.182;2023-12-20T13:01:13;9.00;99.90
19680;DHT22;9989;48.962;9.182;2023-12-20T13:03:39;10.10;99.90
19680;DHT22;9989;48.962;9.182;2023-12-20T13:06:05;10.70;99.90
19680;DHT22;9989;48.962;9.182;2023-12-20T13:08:31;11.00;99.90
19680;DHT22;9989;48.962;9.182;2023-12-20T13:10:57;11.20;99.90
19680;DHT22;9989;48.962;9.182;2023-12-20T13:13:26;11.20;99.80
19680;DHT22;9989;48.962;9.182;2023-12-20T13:15:52;11.10;99.90
19680;DHT22;9989;48.962;9.182;2023-12-20T13:18:20;10.90;99.90
19680;DHT22;9989;48.962;9.182;2023-12-20T13:20:46;10.60;99.90
19680;DHT22;9989;48.962;9.182;2023-12-20T13:23:12;10.30;99.90
19680;DHT22;9989;48.962;9.182;2023-12-20T13:25:37;10.10;99.90
19680;DHT22;9989;48.962;9.182;2023-12-20T13:28:03;9.90;99.90
19680;DHT22;9989;48.962;9.182;2023-12-20T13:30:29;9.70;99.90
19680;DHT22;9989;48.962;9.182;2023-12-20T13:32:55;9.50;99.90
19680;DHT22;9989;48.962;9.182;2023-12-20T13:35:21;9.30;99.90
19680;DHT22;9989;48.962;9.182;2023-12-20T13:37:46;9.00;99.90
19680;DHT22;9989;48.962;9.182;2023-12-20T13:40:12;8.80;99.90
19680;DHT22;9989;48.962;9.182;2023-12-20T13:42:39;8.70;99.90
19680;DHT22;9989;48.962;9.182;2023-12-20T13:45:05;8.60;99.90
19680;DHT22;9989;48.962;9.182;2023-12-20T13:47:32;8.50;99.90
19680;DHT22;9989;48.962;9.182;2023-12-20T13:49:57;8.50;99.90
19680;DHT22;9989;48.962;9.182;2023-12-20T13:52:23;8.30;99.90
19680;DHT22;9989;48.962;9.182;2023-12-20T13:54:48;8.30;99.90
19680;DHT22;9989;48.962;9.182;2023-12-20T13:57:14;8.20;99.90
19680;DHT22;9989;48.962;9.182;2023-12-20T13:59:40;8.20;99.90
19680;DHT22;9989;48.962;9.182;2023-12-20T14:02:06;8.10;99.90
19680;DHT22;9989;48.962;9.182;2023-12-20T14:04:31;8.00;99.90
19680;DHT22;9989;48.962;9.182;2023-12-20T14:06:57;7.90;99.90
19680;DHT22;9989;48.962;9.182;2023-12-20T14:09:23;7.90;99.90
19680;DHT22;9989;48.962;9.182;2023-12-20T14:11:49;7.80;99.90
19680;DHT22;9989;48.962;9.182;2023-12-20T14:14:14;7.80;99.90
19680;DHT22;9989;48.962;9.182;2023-12-20T14:16:40;7.80;99.90
19680;DHT22;9989;48.962;9.182;2023-12-20T14:19:06;7.70;99.90
19680;DHT22;9989;48.962;9.182;2023-12-20T14:21:34;7.70;99.90
19680;DHT22;9989;48.962;9.182;2023-12-20T14:24:00;7.60;99.90
19680;DHT22;9989;48.962;9.182;2023-12-20T14:26:25;7.50;99.90
19680;DHT22;9989;48.962;9.182;2023-12-20T14:28:53;7.60;99.90
19680;DHT22;9989;48.962;9.182;2023-12-20T14:31:19;7.50;99.90
19680;DHT22;9989;48.962;9.182;2023-12-20T14:33:44;7.50;99.90
19680;DHT22;9989;48.962;9.182;2023-12-20T14:36:11;7.40;99.90
19680;DHT22;9989;48.962;9.182;2023-12-20T14:38:37;7.40;99.90
19680;DHT22;9989;48.962;9.182;2023-12-20T14:41:02;7.40;99.90
19680;DHT22;9989;48.962;9.182;2023-12-20T14:43:34;7.30;99.90
19680;DHT22;9989;48.962;9.182;2023-12-20T14:45:59;7.20;99.90
19680;DHT22;9989;48.962;9.182;2023-12-20T14:48:25;7.20;99.90
19680;DHT22;9989;48.962;9.182;2023-12-20T14:50:52;7.20;99.90
19680;DHT22;9989;48.962;9.182;2023-12-20T14:53:19;7.20;99.90
19680;DHT22;9989;48.962;9.182;2023-12-20T14:55:45;7.20;99.90
19680;DHT22;9989;48.962;9.182;2023-12-20T14:58:12;7.20;99.90
19680;DHT22;9989;48.962;9.182;2023-12-20T15:00:38;7.20;99.90
19680;DHT22;9989;48.962;9.182;2023-12-20T15:03:04;7.10;99.90
19680;DHT22;9989;48.962;9.182;2023-12-20T15:05:30;7.10;99.90
19680;DHT22;9989;48.962;9.182;2023-12-20T15:07:56;7.20;99.90
19680;DHT22;9989;48.962;9.182;2023-12-20T15:10:22;7.20;99.90
19680;DHT22;9989;48.962;9.182;2023-12-20T15:12:47;7.20;99.90
19680;DHT22;9989;48.962;9.182;2023-12-20T15:15:13;7.20;99.90
19680;DHT22;9989;48.962;9.182;2023-12-20T15:17:39;7.20;99.90
19680;DHT22;9989;48.962;9.182;2023-12-20T15:20:05;7.20;99.90
19680;DHT22;9989;48.962;9.182;2023-12-20T15:22:31;7.10;99.90
19680;DHT22;9989;48.962;9.182;2023-12-20T15:24:59;7.10;99.90
19680;DHT22;9989;48.962;9.182;2023-12-20T15:30:09;7.10;99.90
19680;DHT22;9989;48.962;9.182;2023-12-20T15:32:35;7.00;99.90
19680;DHT22;9989;48.962;9.182;2023-12-20T15:35:02;7.00;99.90
19680;DHT22;9989;48.962;9.182;2023-12-20T15:37:28;7.00;99.90
19680;DHT22;9989;48.962;9.182;2023-12-20T15:39:53;7.00;99.90
19680;DHT22;9989;48.962;9.182;2023-12-20T15:42:19;7.00;99.90
19680;DHT22;9989;48.962;9.182;2023-12-20T15:44:44;7.10;99.90
19680;DHT22;9989;48.962;9.182;2023-12-20T15:47:10;7.00;99.90
19680;DHT22;9989;48.962;9.182;2023-12-20T15:49:36;7.00;99.90
19680;DHT22;9989;48.962;9.182;2023-12-20T15:52:01;7.00;99.90
19680;DHT22;9989;48.962;9.182;2023-12-20T15:54:27;6.90;99.90
19680;DHT22;9989;48.962;9.182;2023-12-20T15:56:52;6.90;99.90
19680;DHT22;9989;48.962;9.182;2023-12-20T15:59:18;6.90;99.90